Time;durP1;ratioP1;P1;durP2;ratioP2;P2;SDS_P1;SDS_P2;PMS_P1;PMS_P2;Temp;Humidity;BMP_temperature;BMP_pressure;BME280_temperature;BME280_humidity;BME280_pressure;Samples;Min_cycle;Max_cycle;Signal;HPM_P1;HPM_P2
2024/01/09 00:00:37;;;;;;;13.88;12.55;;;24.00;66.90;;;;;;6259787;28;88954;-92
2024/01/09 00:03:39;;;;;;;13.15;11.85;;;24.00;66.70;;;;;;6259513;28;89181;-91
2024/01/09 00:06:41;;;;;;;13.52;12.23;;;24.10;66.40;;;;;;6260175;28;89001;-92
2024/01/09 00:09:43;;;;;;;14.07;12.77;;;24.00;66.20;;;;;;6259616;28;89122;-92
2024/01/09 00:12:45;;;;;;;13.70;12.30;;;24.10;66.20;;;;;;6259710;28;89221;-92
2024/01/09 00:15:49;;;;;;;14.15;12.75;;;24.00;66.10;;;;;;6260183;28;88344;-92
2024/01/09 00:18:53;;;;;;;14.15;12.75;;;24.00;66.00;;;;;;6259410;28;88958;-92
2024/01/09 00:21:57;;;;;;;14.15;12.75;;;24.00;66.10;;;;;;6260628;28;88102;-92
2024/01/09 00:24:59;;;;;;;13.77;12.38;;;24.00;66.20;;;;;;6259724;28;88930;-92
2024/01/09 00:28:01;;;;;;;14.35;12.95;;;24.00;65.90;;;;;;6259411;28;88326;-92
2024/01/09 00:31:05;;;;;;;13.77;12.48;;;24.00;65.90;;;;;;6255943;28;88291;-92
2024/01/09 00:34:09;;;;;;;14.30;12.90;;;24.00;65.90;;;;;;6259275;28;89120;-92
2024/01/09 00:37:12;;;;;;;14.40;13.00;;;24.00;65.90;;;;;;6260014;28;89001;-92
2024/01/09 00:40:14;;;;;;;13.85;12.50;;;24.00;65.80;;;;;;6259345;28;89941;-92
2024/01/09 00:43:16;;;;;;;13.68;12.38;;;24.00;65.70;;;;;;6259495;28;88970;-92
2024/01/09 00:46:20;;;;;;;14.82;13.38;;;24.00;65.70;;;;;;6260089;27;88729;-92
2024/01/09 00:49:24;;;;;;;14.18;12.75;;;24.00;65.80;;;;;;6263356;28;88456;-92
2024/01/09 00:52:27;;;;;;;14.23;12.82;;;23.90;65.80;;;;;;6259373;28;87978;-92
2024/01/09 00:55:29;;;;;;;13.85;12.48;;;23.90;65.90;;;;;;6262785;28;89930;-92
2024/01/09 00:58:31;;;;;;;14.20;12.82;;;23.90;66.00;;;;;;6263438;28;89133;-91
2024/01/09 01:01:34;;;;;;;13.23;12.02;;;23.90;66.10;;;;;;6263170;28;88349;-92
2024/01/09 01:04:38;;;;;;;13.52;12.30;;;24.00;66.20;;;;;;6244333;28;88973;-92
2024/01/09 01:07:40;;;;;;;13.77;12.45;;;23.90;66.10;;;;;;6259624;28;88315;-92
2024/01/09 01:10:42;;;;;;;13.75;12.45;;;23.90;66.10;;;;;;6263059;28;88963;-92
2024/01/09 01:13:45;;;;;;;13.73;12.32;;;23.90;65.70;;;;;;6263021;28;89404;-92
2024/01/09 01:16:56;;;;;;;13.68;12.35;;;24.00;65.50;;;;;;6263198;28;88344;-92
2024/01/09 01:19:59;;;;;;;14.25;12.85;;;24.00;65.50;;;;;;6262874;28;89306;-92
2024/01/09 01:23:01;;;;;;;13.65;12.25;;;24.00;65.40;;;;;;6262887;28;89453;-92
2024/01/09 01:26:03;;;;;;;13.43;12.13;;;23.90;65.40;;;;;;6262451;28;90196;-92
2024/01/09 01:29:05;;;;;;;13.38;12.07;;;23.90;65.20;;;;;;6263242;28;89071;-92
2024/01/09 01:32:10;;;;;;;13.15;11.85;;;24.00;65.10;;;;;;6262528;28;89510;-92
2024/01/09 01:35:12;;;;;;;13.35;12.05;;;23.90;65.00;;;;;;6262447;28;89399;-92
2024/01/09 01:38:14;;;;;;;12.90;11.60;;;24.00;64.90;;;;;;6262899;28;89054;-92
2024/01/09 01:41:16;;;;;;;13.20;11.80;;;23.90;64.90;;;;;;6262297;28;89002;-92
2024/01/09 01:44:19;;;;;;;13.38;12.07;;;23.90;64.70;;;;;;6262700;28;87793;-92
2024/01/09 01:47:22;;;;;;;12.90;11.65;;;23.90;64.80;;;;;;6263663;27;88279;-92
2024/01/09 01:50:24;;;;;;;13.15;11.85;;;23.90;64.80;;;;;;6262575;28;87482;-92
2024/01/09 01:53:30;;;;;;;12.75;11.57;;;23.90;64.70;;;;;;6262414;28;89444;-92
2024/01/09 01:56:33;;;;;;;12.82;11.52;;;23.90;64.70;;;;;;6260625;28;90005;-92
2024/01/09 01:59:38;;;;;;;12.73;11.52;;;23.90;64.90;;;;;;6260968;27;88985;-93
2024/01/09 02:02:43;;;;;;;12.32;11.13;;;23.90;65.00;;;;;;6261610;28;88883;-92
2024/01/09 02:05:46;;;;;;;12.63;11.43;;;23.90;65.20;;;;;;6257732;28;88058;-92
2024/01/09 02:08:48;;;;;;;12.98;11.77;;;23.90;65.30;;;;;;6261553;28;89058;-92
2024/01/09 02:11:50;;;;;;;12.18;10.98;;;23.90;65.20;;;;;;6261474;28;88274;-92
2024/01/09 02:14:53;;;;;;;12.48;11.18;;;23.90;65.20;;;;;;6261370;28;89068;-92
2024/01/09 02:17:56;;;;;;;11.88;10.68;;;23.90;65.00;;;;;;6262136;28;87551;-92
2024/01/09 02:20:59;;;;;;;12.40;11.20;;;23.90;65.10;;;;;;6262565;28;89430;-92
2024/01/09 02:24:01;;;;;;;11.85;10.73;;;23.90;64.70;;;;;;6257604;28;88392;-91
2024/01/09 02:27:12;;;;;;;11.80;10.70;;;23.90;64.50;;;;;;6261477;28;89903;-92
2024/01/09 02:30:17;;;;;;;11.70;10.60;;;23.90;64.50;;;;;;6262448;28;88383;-92
2024/01/09 02:33:20;;;;;;;12.10;10.93;;;23.90;64.40;;;;;;6261885;28;89114;-92
2024/01/09 02:36:22;;;;;;;11.73;10.60;;;23.90;64.40;;;;;;6261206;28;89035;-92
2024/01/09 02:39:28;;;;;;;12.18;10.98;;;23.90;64.40;;;;;;6261987;28;89066;-92
2024/01/09 02:42:30;;;;;;;11.38;10.30;;;23.90;64.40;;;;;;6261980;28;88976;-92
2024/01/09 02:45:33;;;;;;;11.25;10.15;;;23.90;64.30;;;;;;6257275;28;88402;-93
2024/01/09 02:48:35;;;;;;;11.15;10.05;;;23.90;64.20;;;;;;6262179;28;88391;-92
2024/01/09 02:51:37;;;;;;;11.68;10.57;;;23.90;64.20;;;;;;6261860;28;89331;-92
2024/01/09 02:54:40;;;;;;;11.27;10.18;;;23.90;64.10;;;;;;6262518;28;89068;-92
2024/01/09 02:57:42;;;;;;;10.88;9.88;;;23.90;64.00;;;;;;6262369;28;89205;-92
2024/01/09 03:00:46;;;;;;;11.57;10.48;;;23.90;64.00;;;;;;6262895;28;89392;-93
2024/01/09 03:03:48;;;;;;;11.50;10.40;;;23.90;64.00;;;;;;6261976;28;89733;-93
2024/01/09 03:06:50;;;;;;;11.20;10.10;;;23.90;63.90;;;;;;6262298;28;88535;-92
2024/01/09 03:09:52;;;;;;;10.70;9.70;;;23.90;63.80;;;;;;6261829;27;89222;-92
2024/01/09 03:12:54;;;;;;;10.52;9.52;;;23.80;63.90;;;;;;6258815;28;87784;-93
2024/01/09 03:15:58;;;;;;;10.68;9.68;;;23.80;64.00;;;;;;6263268;28;89302;-93
2024/01/09 03:19:00;;;;;;;10.60;9.60;;;23.80;64.10;;;;;;6263399;28;88366;-92
2024/01/09 03:22:02;;;;;;;9.75;8.85;;;23.80;64.20;;;;;;6258851;28;86984;-92
2024/01/09 03:25:04;;;;;;;11.07;9.95;;;23.80;64.20;;;;;;6263043;28;89185;-92
2024/01/09 03:28:07;;;;;;;10.85;9.73;;;23.80;64.20;;;;;;6261892;28;90307;-92
2024/01/09 03:31:19;;;;;;;9.55;8.65;;;23.80;64.20;;;;;;6263497;28;88390;-92
2024/01/09 03:34:21;;;;;;;10.30;9.30;;;23.80;63.90;;;;;;6263079;28;88277;-92
2024/01/09 03:37:23;;;;;;;10.68;9.60;;;23.80;63.80;;;;;;6261378;28;89356;-92
2024/01/09 03:40:26;;;;;;;10.27;9.27;;;23.80;63.70;;;;;;6261992;28;88008;-93
2024/01/09 03:43:29;;;;;;;10.45;9.45;;;23.80;63.70;;;;;;6261564;28;89047;-93
2024/01/09 03:46:33;;;;;;;10.18;9.18;;;23.80;63.60;;;;;;6261651;28;88983;-93
2024/01/09 03:49:36;;;;;;;10.50;9.45;;;23.80;63.50;;;;;;6257541;28;87655;-92
2024/01/09 03:52:39;;;;;;;10.45;9.35;;;23.80;63.50;;;;;;6261353;28;89299;-93
2024/01/09 03:55:41;;;;;;;10.27;9.27;;;23.80;63.50;;;;;;6256965;28;88082;-93
2024/01/09 03:58:43;;;;;;;10.45;9.45;;;23.80;64.30;;;;;;6260449;28;88942;-93
2024/01/09 04:01:46;;;;;;;10.63;9.40;;;23.80;63.30;;;;;;6260916;28;88990;-93
2024/01/09 04:04:48;;;;;;;10.90;9.80;;;23.90;63.30;;;;;;6261073;28;89006;-92
2024/01/09 04:07:50;;;;;;;11.05;9.95;;;23.80;63.20;;;;;;6260235;28;89464;-93
2024/01/09 04:10:52;;;;;;;11.18;10.07;;;23.90;63.20;;;;;;6260397;28;89479;-93
2024/01/09 04:13:54;;;;;;;11.00;9.90;;;23.90;63.20;;;;;;6259788;28;88044;-93
2024/01/09 04:16:58;;;;;;;11.25;10.15;;;23.90;63.20;;;;;;6260367;28;89670;-93
2024/01/09 04:20:01;;;;;;;12.18;10.98;;;23.90;63.20;;;;;;6260032;28;88274;-93
2024/01/09 04:23:03;;;;;;;11.50;10.30;;;23.90;63.20;;;;;;6261644;28;89228;-92
2024/01/09 04:26:05;;;;;;;11.27;10.18;;;23.90;63.20;;;;;;6264483;28;87982;-92
2024/01/09 04:29:07;;;;;;;12.00;10.80;;;23.90;63.10;;;;;;6263872;28;89953;-92
2024/01/09 04:32:10;;;;;;;11.63;10.43;;;23.90;63.00;;;;;;6263612;28;89768;-92
2024/01/09 04:35:12;;;;;;;11.10;10.00;;;23.90;63.00;;;;;;6264129;28;89426;-92
2024/01/09 04:38:15;;;;;;;12.35;11.07;;;23.90;62.90;;;;;;6264591;28;88987;-92
2024/01/09 04:41:17;;;;;;;12.15;10.95;;;24.00;62.80;;;;;;6263570;28;89061;-92
2024/01/09 04:44:19;;;;;;;11.90;10.77;;;23.90;62.80;;;;;;6264306;28;89486;-93
2024/01/09 04:47:23;;;;;;;12.13;10.93;;;23.90;62.80;;;;;;6264084;28;88266;-92
2024/01/09 04:50:25;;;;;;;11.88;10.68;;;23.90;62.70;;;;;;6263947;28;87212;-92
2024/01/09 04:53:27;;;;;;;12.60;11.30;;;23.90;62.70;;;;;;6264006;28;88052;-93
2024/01/09 04:56:29;;;;;;;11.82;10.63;;;24.00;62.80;;;;;;6259599;28;87025;-93
2024/01/09 04:59:31;;;;;;;11.50;10.40;;;23.90;62.70;;;;;;6262321;28;88944;-93
2024/01/09 05:02:35;;;;;;;11.80;10.63;;;23.90;62.70;;;;;;6263302;28;89445;-93
2024/01/09 05:05:38;;;;;;;12.02;10.80;;;23.90;62.70;;;;;;6262820;28;88970;-93
2024/01/09 05:08:40;;;;;;;10.95;9.90;;;23.90;62.70;;;;;;6261419;28;87403;-93
2024/01/09 05:11:42;;;;;;;11.85;10.65;;;24.00;62.70;;;;;;6263676;28;89270;-93
2024/01/09 05:14:44;;;;;;;11.18;10.02;;;23.90;62.70;;;;;;6262968;28;89570;-92
2024/01/09 05:17:47;;;;;;;11.85;10.65;;;23.90;62.70;;;;;;6263205;28;88475;-93
2024/01/09 05:20:49;;;;;;;12.13;10.93;;;23.90;62.50;;;;;;6263768;28;87261;-92
2024/01/09 05:23:52;;;;;;;11.57;10.38;;;23.90;62.50;;;;;;6262876;28;88982;-92
2024/01/09 05:26:54;;;;;;;11.30;10.13;;;23.90;62.50;;;;;;6263941;28;89113;-92
2024/01/09 05:29:56;;;;;;;11.48;10.38;;;24.00;62.50;;;;;;6263135;28;90102;-92
2024/01/09 05:32:59;;;;;;;11.35;10.25;;;24.00;62.50;;;;;;6261777;27;89453;-93
2024/01/09 05:36:02;;;;;;;11.20;10.10;;;24.00;62.50;;;;;;6259212;28;88412;-93
2024/01/09 05:39:05;;;;;;;11.55;10.38;;;24.00;62.40;;;;;;6263914;28;88241;-92
2024/01/09 05:42:11;;;;;;;10.98;9.88;;;24.00;62.40;;;;;;6263688;28;88969;-93
2024/01/09 05:45:14;;;;;;;11.20;10.10;;;24.00;62.30;;;;;;6263198;28;88463;-93
2024/01/09 05:48:18;;;;;;;11.65;10.45;;;24.00;62.30;;;;;;6263141;28;88979;-93
2024/01/09 05:51:20;;;;;;;11.50;10.40;;;24.00;62.30;;;;;;6263830;28;87512;-92
2024/01/09 05:54:22;;;;;;;11.32;10.23;;;24.00;62.20;;;;;;6262210;28;89407;-92
2024/01/09 05:57:24;;;;;;;11.65;10.40;;;24.00;62.30;;;;;;6263137;28;88844;-92
2024/01/09 06:00:31;;;;;;;11.35;10.15;;;24.00;62.30;;;;;;6261238;28;89981;-95
2024/01/09 06:03:34;;;;;;;10.57;9.57;;;24.00;62.20;;;;;;6262201;28;88995;-96
2024/01/09 06:06:36;;;;;;;10.80;9.70;;;24.00;62.30;;;;;;6263645;28;87996;-94
2024/01/09 06:09:38;;;;;;;10.82;9.82;;;24.00;62.30;;;;;;6263278;28;88250;-95
2024/01/09 06:12:40;;;;;;;10.30;9.23;;;24.00;62.30;;;;;;6263503;28;89012;-94
2024/01/09 06:15:42;;;;;;;10.95;9.85;;;24.00;62.50;;;;;;6262709;28;89073;-94
2024/01/09 06:18:46;;;;;;;10.90;9.80;;;24.00;62.60;;;;;;6262583;28;89017;-94
2024/01/09 06:21:48;;;;;;;10.93;9.85;;;24.00;62.70;;;;;;6264394;28;88188;-94
2024/01/09 06:24:50;;;;;;;10.27;9.32;;;24.00;62.80;;;;;;6263177;28;89000;-94
2024/01/09 06:27:54;;;;;;;10.95;9.60;;;24.10;62.90;;;;;;6262956;28;89503;-94
2024/01/09 06:30:56;;;;;;;10.48;9.48;;;24.00;63.00;;;;;;6261316;28;90080;-94
2024/01/09 06:33:59;;;;;;;10.77;9.68;;;24.00;63.10;;;;;;6252567;28;90813;-94
2024/01/09 06:37:01;;;;;;;10.52;9.43;;;24.10;63.20;;;;;;6238217;28;89462;-92
2024/01/09 06:40:04;;;;;;;10.73;9.65;;;24.10;63.10;;;;;;6237118;28;89074;-93
2024/01/09 06:43:07;;;;;;;10.18;9.18;;;24.10;63.70;;;;;;6237728;28;89463;-93
2024/01/09 06:46:09;;;;;;;11.57;9.35;;;24.10;63.30;;;;;;6236616;28;89092;-93
2024/01/09 06:49:13;;;;;;;15.13;10.48;;;24.10;65.90;;;;;;6236794;28;89343;-92
2024/01/09 06:52:15;;;;;;;10.15;9.15;;;24.10;67.70;;;;;;6237522;28;88211;-92
2024/01/09 06:55:17;;;;;;;10.30;9.25;;;24.10;67.10;;;;;;6237391;28;89028;-92
2024/01/09 06:58:20;;;;;;;10.88;8.85;;;24.10;67.70;;;;;;6239089;28;89377;-91
2024/01/09 07:01:22;;;;;;;10.18;9.10;;;24.10;69.70;;;;;;6237016;28;89937;-92
2024/01/09 07:04:26;;;;;;;10.32;9.00;;;24.20;68.40;;;;;;6237617;28;89057;-92
2024/01/09 07:07:28;;;;;;;11.13;9.45;;;24.10;67.10;;;;;;6237750;28;88836;-92
2024/01/09 07:10:31;;;;;;;13.38;9.65;;;24.20;66.70;;;;;;6237154;28;88286;-92
2024/01/09 07:13:33;;;;;;;14.02;10.30;;;24.20;66.70;;;;;;6240108;28;89040;-92
2024/01/09 07:16:35;;;;;;;17.77;11.40;;;24.20;67.10;;;;;;6234432;28;87925;-91
2024/01/09 07:19:38;;;;;;;20.48;13.07;;;24.10;63.50;;;;;;6236060;28;89259;-92
2024/01/09 07:22:40;;;;;;;19.35;13.63;;;24.10;60.30;;;;;;6236903;28;88536;-92
2024/01/09 07:25:42;;;;;;;18.10;12.85;;;24.00;61.00;;;;;;6232272;28;87041;-92
2024/01/09 07:28:45;;;;;;;18.17;12.05;;;24.00;61.30;;;;;;6236271;28;88910;-92
2024/01/09 07:31:47;;;;;;;13.38;11.68;;;23.90;58.10;;;;;;6234658;28;90230;-92
2024/01/09 07:34:51;;;;;;;16.33;11.85;;;23.90;56.30;;;;;;6244603;28;89252;-92
2024/01/09 07:37:53;;;;;;;13.52;11.20;;;23.90;55.50;;;;;;6259704;28;89177;-92
2024/01/09 07:40:55;;;;;;;13.07;11.27;;;23.80;55.70;;;;;;6260593;27;89020;-92
2024/01/09 07:43:57;;;;;;;15.07;11.60;;;23.80;55.60;;;;;;6259675;28;89258;-92
2024/01/09 07:46:59;;;;;;;24.92;14.38;;;23.80;56.10;;;;;;6259234;28;87988;-92
2024/01/09 07:50:03;;;;;;;26.60;14.63;;;23.80;56.70;;;;;;6260578;28;89095;-92
2024/01/09 07:53:05;;;;;;;27.83;15.25;;;23.80;57.40;;;;;;6255304;28;87684;-92
2024/01/09 07:56:16;;;;;;;23.75;14.20;;;23.80;58.50;;;;;;6256261;28;86868;-92
2024/01/09 07:59:18;;;;;;;20.42;13.43;;;23.80;59.40;;;;;;6260631;27;87998;-93
2024/01/09 08:02:20;;;;;;;19.63;12.40;;;23.80;59.50;;;;;;6263359;28;89976;-92
2024/01/09 08:05:24;;;;;;;18.58;13.10;;;23.90;59.60;;;;;;6264353;28;89173;-92
2024/01/09 08:08:26;;;;;;;16.90;12.02;;;23.90;60.10;;;;;;6264748;28;88694;-92
2024/01/09 08:11:28;;;;;;;16.70;12.05;;;23.90;59.70;;;;;;6264463;27;89036;-93
2024/01/09 08:14:31;;;;;;;15.52;11.45;;;23.90;59.70;;;;;;6264266;27;89520;-92
2024/01/09 08:17:33;;;;;;;15.80;12.25;;;23.90;59.60;;;;;;6264172;28;89123;-92
2024/01/09 08:20:38;;;;;;;16.55;12.32;;;24.00;59.60;;;;;;6263472;27;89101;-92
2024/01/09 08:23:40;;;;;;;15.23;11.75;;;24.00;59.50;;;;;;6264760;28;88599;-92
2024/01/09 08:26:44;;;;;;;15.75;12.23;;;24.00;59.40;;;;;;6263853;28;89169;-92
2024/01/09 08:29:47;;;;;;;15.48;12.40;;;24.00;59.80;;;;;;6263933;28;88448;-92
2024/01/09 08:32:49;;;;;;;16.33;11.88;;;24.10;59.90;;;;;;6263185;28;90353;-92
2024/01/09 08:35:53;;;;;;;14.25;11.18;;;24.10;60.10;;;;;;6263776;28;88056;-92
2024/01/09 08:38:55;;;;;;;16.08;12.10;;;24.10;60.30;;;;;;6260427;28;88066;-92
2024/01/09 08:41:58;;;;;;;14.73;11.82;;;24.10;68.00;;;;;;6263742;28;89085;-93
2024/01/09 08:45:01;;;;;;;16.00;12.35;;;24.20;69.80;;;;;;6263714;28;88347;-93
2024/01/09 08:48:04;;;;;;;14.10;11.90;;;24.20;68.60;;;;;;6263595;28;88995;-92
2024/01/09 08:51:08;;;;;;;16.83;11.88;;;24.30;67.90;;;;;;6263286;28;89493;-92
2024/01/09 08:54:10;;;;;;;16.27;12.48;;;24.30;67.10;;;;;;6264681;28;88351;-92
2024/01/09 08:57:12;;;;;;;17.60;12.95;;;24.40;66.60;;;;;;6263316;28;89055;-92
2024/01/09 09:00:15;;;;;;;22.45;13.55;;;24.40;66.10;;;;;;6263362;28;88856;-92
2024/01/09 09:03:18;;;;;;;20.77;14.23;;;24.40;65.20;;;;;;6263057;28;90148;-92
2024/01/09 09:06:22;;;;;;;21.17;14.25;;;24.40;64.20;;;;;;6262804;28;87789;-92
2024/01/09 09:09:24;;;;;;;19.55;14.02;;;24.40;59.20;;;;;;6262578;28;89385;-93
2024/01/09 09:12:28;;;;;;;21.25;12.95;;;24.30;54.70;;;;;;6263680;28;89126;-92
2024/01/09 09:15:31;;;;;;;16.23;12.52;;;24.30;53.00;;;;;;6263265;28;89454;-92
2024/01/09 09:18:33;;;;;;;15.10;12.35;;;24.20;50.40;;;;;;6263435;28;88078;-92
2024/01/09 09:21:37;;;;;;;14.93;13.35;;;24.10;49.10;;;;;;6263326;28;89500;-92
2024/01/09 09:24:39;;;;;;;17.33;12.43;;;24.00;47.10;;;;;;6263236;28;88765;-92
2024/01/09 09:27:42;;;;;;;13.98;12.07;;;23.90;47.90;;;;;;6262038;28;89604;-92
2024/01/09 09:30:45;;;;;;;14.00;12.45;;;23.80;49.80;;;;;;6262847;28;89354;-92
2024/01/09 09:33:47;;;;;;;12.45;11.10;;;23.80;51.00;;;;;;6259403;28;88900;-92
2024/01/09 09:36:51;;;;;;;12.75;11.48;;;23.80;51.90;;;;;;6262740;28;87250;-92
2024/01/09 09:39:54;;;;;;;12.63;11.07;;;23.70;52.60;;;;;;6263259;28;89483;-92
2024/01/09 09:42:58;;;;;;;12.57;11.25;;;23.70;53.50;;;;;;6258773;28;88007;-92
2024/01/09 09:46:03;;;;;;;12.80;11.05;;;23.70;54.30;;;;;;6262305;28;89165;-92
2024/01/09 09:49:09;;;;;;;12.75;11.38;;;23.70;54.90;;;;;;6264119;28;89202;-92
2024/01/09 09:52:14;;;;;;;12.73;11.38;;;23.70;55.30;;;;;;6263789;28;89916;-92
2024/01/09 09:55:17;;;;;;;12.85;11.07;;;23.70;55.80;;;;;;6258940;28;86899;-92
2024/01/09 09:58:20;;;;;;;12.80;11.50;;;23.80;56.20;;;;;;6262264;28;89399;-91
2024/01/09 10:01:25;;;;;;;12.70;11.38;;;23.80;56.50;;;;;;6262409;28;89051;-92
2024/01/09 10:04:37;;;;;;;13.52;11.15;;;23.70;56.70;;;;;;6261788;28;89974;-92
2024/01/09 10:07:44;;;;;;;13.27;11.38;;;23.70;56.90;;;;;;6261826;28;89373;-92
2024/01/09 10:10:47;;;;;;;13.43;12.02;;;23.70;57.20;;;;;;6262341;27;87274;-92
2024/01/09 10:13:50;;;;;;;12.48;11.18;;;23.80;57.50;;;;;;6262206;28;89075;-92
2024/01/09 10:16:55;;;;;;;12.88;11.57;;;23.70;57.50;;;;;;6258206;28;88047;-92
2024/01/09 10:19:57;;;;;;;13.10;11.70;;;23.70;57.60;;;;;;6261241;27;87115;-92
2024/01/09 10:23:01;;;;;;;12.98;11.68;;;23.80;57.90;;;;;;6262224;28;88452;-92
2024/01/09 10:26:04;;;;;;;12.45;11.25;;;23.80;58.10;;;;;;6262201;28;87782;-92
2024/01/09 10:29:09;;;;;;;13.35;11.60;;;23.70;58.20;;;;;;6262108;28;89572;-92
2024/01/09 10:32:15;;;;;;;13.30;11.88;;;23.80;58.30;;;;;;6261584;28;89851;-92
2024/01/09 10:35:17;;;;;;;13.65;12.25;;;23.80;58.50;;;;;;6260610;28;89651;-92
2024/01/09 10:38:26;;;;;;;13.68;12.27;;;23.80;58.70;;;;;;6261855;28;89224;-92
2024/01/09 10:41:30;;;;;;;13.45;12.05;;;23.80;58.90;;;;;;6261182;28;88371;-92
2024/01/09 10:44:33;;;;;;;13.82;12.50;;;23.90;59.00;;;;;;6242248;28;88947;-92
2024/01/09 10:47:35;;;;;;;12.70;11.35;;;23.90;59.00;;;;;;6262004;28;88451;-92
2024/01/09 10:50:37;;;;;;;13.70;12.20;;;23.90;59.10;;;;;;6261543;27;89171;-92
2024/01/09 10:53:47;;;;;;;14.57;13.00;;;23.90;59.10;;;;;;6261513;28;89398;-90
2024/01/09 10:56:52;;;;;;;13.50;12.18;;;23.90;59.20;;;;;;6261833;28;88204;-92
2024/01/09 10:59:56;;;;;;;14.25;12.80;;;23.90;59.40;;;;;;6260764;28;89061;-92
2024/01/09 11:02:58;;;;;;;14.45;13.02;;;23.90;59.50;;;;;;6260943;28;89068;-92
2024/01/09 11:06:04;;;;;;;14.38;12.88;;;23.90;59.70;;;;;;6260258;28;90168;-92
2024/01/09 11:09:09;;;;;;;13.77;12.38;;;23.90;59.90;;;;;;6261092;28;89015;-91
2024/01/09 11:12:15;;;;;;;14.20;12.80;;;23.90;60.00;;;;;;6260862;27;89051;-91
2024/01/09 11:15:22;;;;;;;15.05;13.35;;;23.90;60.10;;;;;;6260490;28;89076;-91
2024/01/09 11:18:27;;;;;;;14.82;13.32;;;23.90;59.90;;;;;;6256870;28;87466;-93
2024/01/09 11:21:29;;;;;;;14.30;12.80;;;23.80;59.70;;;;;;6261487;27;89390;-92
2024/01/09 11:24:34;;;;;;;14.65;13.18;;;23.90;60.50;;;;;;6261742;28;87934;-92
2024/01/09 11:27:41;;;;;;;14.73;12.98;;;23.90;60.60;;;;;;6261082;28;88772;-91
2024/01/09 11:30:43;;;;;;;15.18;13.30;;;23.90;61.30;;;;;;6259461;28;88420;-91
2024/01/09 11:33:46;;;;;;;16.38;14.65;;;23.90;62.70;;;;;;6260686;28;89093;-91
2024/01/09 11:36:48;;;;;;;17.15;15.38;;;23.90;63.00;;;;;;6260103;28;89889;-91
2024/01/09 11:39:52;;;;;;;16.23;14.43;;;24.00;65.10;;;;;;6261145;28;89020;-92
2024/01/09 11:42:54;;;;;;;16.35;14.15;;;24.40;62.70;;;;;;6261026;28;88381;-91
2024/01/09 11:45:56;;;;;;;15.70;14.10;;;24.80;61.10;;;;;;6260276;28;88972;-92
2024/01/09 11:49:00;;;;;;;16.27;14.10;;;25.00;60.30;;;;;;6261421;28;89123;-91
2024/01/09 11:52:04;;;;;;;15.48;13.80;;;25.10;61.30;;;;;;6261072;28;89366;-91
2024/01/09 11:55:09;;;;;;;14.82;13.23;;;25.10;61.80;;;;;;6261348;28;89088;-92
2024/01/09 11:58:12;;;;;;;14.00;12.60;;;25.00;61.60;;;;;;6260982;28;88410;-92
2024/01/09 12:01:15;;;;;;;14.43;12.93;;;24.90;61.50;;;;;;6260122;28;89369;-92
2024/01/09 12:04:17;;;;;;;14.93;12.25;;;24.80;60.80;;;;;;6259847;28;87939;-92
2024/01/09 12:07:20;;;;;;;14.32;12.82;;;24.60;51.90;;;;;;6259785;28;90027;-92
2024/01/09 12:10:23;;;;;;;14.75;12.00;;;24.10;46.50;;;;;;6260135;28;89170;-91
2024/01/09 12:13:26;;;;;;;12.20;10.50;;;23.80;46.80;;;;;;6259848;28;89062;-91
2024/01/09 12:16:29;;;;;;;12.25;10.95;;;23.70;46.60;;;;;;6259166;28;89005;-91
2024/01/09 12:19:32;;;;;;;12.23;10.13;;;23.60;45.90;;;;;;6259334;28;89257;-91
2024/01/09 12:22:35;;;;;;;11.82;9.80;;;23.60;47.70;;;;;;6262432;28;89150;-91
2024/01/09 12:25:39;;;;;;;10.82;9.63;;;23.50;48.80;;;;;;6261099;28;89249;-92
2024/01/09 12:28:43;;;;;;;10.15;9.15;;;23.60;49.80;;;;;;6261331;28;88186;-92
2024/01/09 12:31:46;;;;;;;10.82;9.70;;;23.50;50.20;;;;;;6242622;28;88895;-92
2024/01/09 12:34:48;;;;;;;10.80;9.25;;;23.60;51.20;;;;;;6259923;28;89106;-92
2024/01/09 12:37:51;;;;;;;10.02;8.65;;;23.60;51.20;;;;;;6260338;28;90465;-92
2024/01/09 12:40:59;;;;;;;10.43;9.32;;;23.60;51.60;;;;;;6260770;28;89015;-92
2024/01/09 12:44:09;;;;;;;10.75;9.25;;;23.60;52.10;;;;;;6244141;28;88802;-92
2024/01/09 12:47:14;;;;;;;11.20;9.10;;;23.60;52.60;;;;;;6264547;28;89104;-92
2024/01/09 12:50:28;;;;;;;10.27;9.10;;;23.60;52.80;;;;;;6264947;28;89341;-92
2024/01/09 12:53:32;;;;;;;10.40;8.75;;;23.60;53.10;;;;;;6264570;28;89135;-92
2024/01/09 12:56:36;;;;;;;11.07;9.25;;;23.60;53.20;;;;;;6264865;28;89019;-92
2024/01/09 12:59:38;;;;;;;10.30;8.82;;;23.60;54.20;;;;;;6265075;28;88740;-94
2024/01/09 13:02:41;;;;;;;12.93;9.18;;;23.60;54.60;;;;;;6264243;28;89378;-92
2024/01/09 13:05:44;;;;;;;10.05;9.00;;;23.60;54.60;;;;;;6264271;28;89048;-92
2024/01/09 13:08:46;;;;;;;11.55;9.43;;;23.60;55.00;;;;;;6264119;28;90075;-93
2024/01/09 13:11:50;;;;;;;15.25;9.05;;;23.60;55.40;;;;;;6264128;28;89106;-92
2024/01/09 13:14:52;;;;;;;12.15;9.00;;;23.60;56.70;;;;;;6264694;28;89030;-92
2024/01/09 13:17:54;;;;;;;10.75;9.00;;;23.60;55.90;;;;;;6264172;28;88811;-92
2024/01/09 13:20:57;;;;;;;10.13;9.13;;;23.60;55.50;;;;;;6264063;28;88800;-93
2024/01/09 13:23:59;;;;;;;10.85;8.82;;;23.60;55.60;;;;;;6264212;27;89330;-93
2024/01/09 13:27:03;;;;;;;11.65;9.23;;;23.60;56.40;;;;;;6264089;28;88709;-93
2024/01/09 13:30:07;;;;;;;12.25;9.40;;;23.60;56.60;;;;;;6264385;28;88629;-93
2024/01/09 13:33:10;;;;;;;11.07;9.70;;;23.60;56.30;;;;;;6263746;28;88918;-93
2024/01/09 13:36:13;;;;;;;11.25;9.38;;;23.60;56.10;;;;;;6263600;28;89009;-92
2024/01/09 13:39:17;;;;;;;11.63;9.43;;;23.60;56.00;;;;;;6263218;28;89443;-93
2024/01/09 13:42:21;;;;;;;11.50;9.20;;;23.60;56.00;;;;;;6264266;28;89092;-93
2024/01/09 13:45:23;;;;;;;11.05;9.27;;;23.60;56.00;;;;;;6263596;28;88110;-93
2024/01/09 13:48:26;;;;;;;10.43;8.93;;;23.50;55.90;;;;;;6263393;28;89241;-94
2024/01/09 13:51:28;;;;;;;11.93;9.27;;;23.50;55.80;;;;;;6264141;28;89310;-94
2024/01/09 13:54:31;;;;;;;10.27;9.13;;;23.50;55.80;;;;;;6263542;27;87326;-93
2024/01/09 13:57:35;;;;;;;11.80;9.27;;;23.50;55.80;;;;;;6262987;28;89049;-94
2024/01/09 14:00:38;;;;;;;10.70;9.25;;;23.50;56.10;;;;;;6264028;28;87926;-93
2024/01/09 14:03:41;;;;;;;11.23;9.38;;;23.40;56.20;;;;;;6263103;27;87916;-93
2024/01/09 14:06:43;;;;;;;11.50;9.82;;;23.40;56.40;;;;;;6262951;28;89285;-93
2024/01/09 14:09:45;;;;;;;11.68;9.63;;;23.40;56.40;;;;;;6262677;28;89850;-93
2024/01/09 14:12:49;;;;;;;10.50;8.73;;;23.40;56.50;;;;;;6262319;28;89115;-93
2024/01/09 14:15:54;;;;;;;10.48;9.38;;;23.40;56.50;;;;;;6262237;28;89005;-94
2024/01/09 14:18:59;;;;;;;11.02;9.27;;;23.40;56.60;;;;;;6262626;28;89649;-93
2024/01/09 14:22:01;;;;;;;11.52;9.52;;;23.40;56.70;;;;;;6262538;28;89405;-93
2024/01/09 14:25:04;;;;;;;13.90;10.05;;;23.30;56.60;;;;;;6262324;27;88759;-93
2024/01/09 14:28:08;;;;;;;11.88;9.38;;;23.30;56.70;;;;;;6262330;28;89356;-94
2024/01/09 14:31:10;;;;;;;13.35;9.68;;;23.30;56.50;;;;;;6263880;28;88334;-93
2024/01/09 14:34:14;;;;;;;12.82;9.77;;;23.30;56.90;;;;;;6262014;27;89089;-93
2024/01/09 14:37:16;;;;;;;11.32;9.05;;;23.30;57.20;;;;;;6262505;28;89887;-93
2024/01/09 14:40:19;;;;;;;13.50;9.55;;;23.30;57.40;;;;;;6261838;27;89931;-93
2024/01/09 14:43:23;;;;;;;10.52;9.20;;;23.30;57.40;;;;;;6261753;28;89541;-93
2024/01/09 14:46:25;;;;;;;11.93;9.48;;;23.30;57.50;;;;;;6261615;28;89378;-93
2024/01/09 14:49:29;;;;;;;11.82;9.73;;;23.20;57.60;;;;;;6261512;28;90810;-93
2024/01/09 14:52:31;;;;;;;10.77;8.75;;;23.20;57.60;;;;;;6262148;28;89272;-93
2024/01/09 14:55:34;;;;;;;10.27;9.27;;;23.20;57.80;;;;;;6262143;28;88755;-93
2024/01/09 14:58:37;;;;;;;12.80;9.43;;;23.20;57.80;;;;;;6261014;28;89458;-93
2024/01/09 15:01:39;;;;;;;12.70;9.77;;;23.20;57.80;;;;;;6263183;28;88401;-92
2024/01/09 15:04:42;;;;;;;11.90;8.90;;;23.20;57.80;;;;;;6261652;28;89203;-93
2024/01/09 15:07:45;;;;;;;12.90;8.43;;;23.10;57.70;;;;;;6260625;28;89471;-93
2024/01/09 15:10:47;;;;;;;10.70;8.95;;;23.10;57.90;;;;;;6261930;28;91460;-93
2024/01/09 15:13:51;;;;;;;11.48;9.07;;;23.10;58.00;;;;;;6260895;28;89181;-93
2024/01/09 15:16:53;;;;;;;12.23;8.98;;;23.10;57.90;;;;;;6261984;28;87944;-93
2024/01/09 15:19:55;;;;;;;9.98;8.30;;;23.10;58.20;;;;;;6262262;28;87936;-93
2024/01/09 15:22:59;;;;;;;11.18;8.90;;;23.10;58.30;;;;;;6261709;28;89566;-93
2024/01/09 15:26:01;;;;;;;10.35;8.30;;;23.10;58.40;;;;;;6261813;28;89379;-93
2024/01/09 15:29:06;;;;;;;9.07;8.00;;;23.10;58.60;;;;;;6262203;28;90071;-93
2024/01/09 15:32:17;;;;;;;10.68;8.40;;;23.20;58.80;;;;;;6262153;28;88815;-93